sensor_id;sensor_type;location;lat;lon;timestamp;P1;durP1;ratioP1;P2;durP2;ratioP2
32094;SDS011;18608;53.688;10.748;2022-10-28T00:00:27;15.47;;;4.90;;
32094;SDS011;18608;53.688;10.748;2022-10-28T00:02:52;6.20;;;4.60;;
32094;SDS011;18608;53.688;10.748;2022-10-28T00:05:18;8.70;;;4.93;;
32094;SDS011;18608;53.688;10.748;2022-10-28T00:07:44;6.20;;;5.23;;
32094;SDS011;18608;53.688;10.748;2022-10-28T00:10:10;6.60;;;4.63;;
32094;SDS011;18608;53.688;10.748;2022-10-28T00:12:37;7.10;;;5.83;;
32094;SDS011;18608;53.688;10.748;2022-10-28T00:15:03;6.43;;;4.50;;
32094;SDS011;18608;53.688;10.748;2022-10-28T00:17:29;6.73;;;4.57;;
32094;SDS011;18608;53.688;10.748;2022-10-28T00:19:55;11.93;;;4.60;;
32094;SDS011;18608;53.688;10.748;2022-10-28T00:22:21;11.37;;;4.77;;
32094;SDS011;18608;53.688;10.748;2022-10-28T00:24:47;7.73;;;4.43;;
32094;SDS011;18608;53.688;10.748;2022-10-28T00:27:13;11.67;;;5.10;;
32094;SDS011;18608;53.688;10.748;2022-10-28T00:29:39;6.63;;;4.40;;
32094;SDS011;18608;53.688;10.748;2022-10-28T00:32:05;10.97;;;4.20;;
32094;SDS011;18608;53.688;10.748;2022-10-28T00:34:31;8.50;;;4.83;;
32094;SDS011;18608;53.688;10.748;2022-10-28T00:36:57;6.63;;;4.33;;
32094;SDS011;18608;53.688;10.748;2022-10-28T00:39:23;9.60;;;5.30;;
32094;SDS011;18608;53.688;10.748;2022-10-28T00:41:57;8.10;;;4.63;;
32094;SDS011;18608;53.688;10.748;2022-10-28T00:49:41;6.53;;;4.70;;
32094;SDS011;18608;53.688;10.748;2022-10-28T00:52:11;6.57;;;5.43;;
32094;SDS011;18608;53.688;10.748;2022-10-28T00:54:40;12.50;;;4.33;;
32094;SDS011;18608;53.688;10.748;2022-10-28T00:57:09;7.10;;;4.37;;
32094;SDS011;18608;53.688;10.748;2022-10-28T00:59:39;5.70;;;4.60;;
32094;SDS011;18608;53.688;10.748;2022-10-28T01:02:09;16.87;;;4.27;;
32094;SDS011;18608;53.688;10.748;2022-10-28T01:04:35;10.47;;;4.37;;
32094;SDS011;18608;53.688;10.748;2022-10-28T01:07:02;8.23;;;5.23;;
32094;SDS011;18608;53.688;10.748;2022-10-28T01:09:28;7.73;;;4.83;;
32094;SDS011;18608;53.688;10.748;2022-10-28T01:14:59;11.37;;;5.10;;
32094;SDS011;18608;53.688;10.748;2022-10-28T01:17:48;8.33;;;5.47;;
32094;SDS011;18608;53.688;10.748;2022-10-28T01:29:49;11.80;;;5.23;;
32094;SDS011;18608;53.688;10.748;2022-10-28T01:35:51;14.83;;;5.00;;
32094;SDS011;18608;53.688;10.748;2022-10-28T01:38:40;9.57;;;4.93;;
32094;SDS011;18608;53.688;10.748;2022-10-28T01:44:00;13.87;;;5.30;;
32094;SDS011;18608;53.688;10.748;2022-10-28T01:46:46;12.80;;;5.40;;
32094;SDS011;18608;53.688;10.748;2022-10-28T01:49:29;7.53;;;4.93;;
32094;SDS011;18608;53.688;10.748;2022-10-28T01:52:17;6.80;;;4.63;;
32094;SDS011;18608;53.688;10.748;2022-10-28T01:54:49;7.27;;;5.50;;
32094;SDS011;18608;53.688;10.748;2022-10-28T01:57:18;7.50;;;4.80;;
32094;SDS011;18608;53.688;10.748;2022-10-28T01:59:46;7.13;;;4.87;;
32094;SDS011;18608;53.688;10.748;2022-10-28T02:02:13;13.53;;;5.60;;
32094;SDS011;18608;53.688;10.748;2022-10-28T02:04:41;12.37;;;5.63;;
32094;SDS011;18608;53.688;10.748;2022-10-28T02:07:07;10.63;;;5.37;;
32094;SDS011;18608;53.688;10.748;2022-10-28T02:12:32;7.10;;;5.23;;
32094;SDS011;18608;53.688;10.748;2022-10-28T02:20:26;11.03;;;6.00;;
32094;SDS011;18608;53.688;10.748;2022-10-28T02:26:00;10.40;;;5.20;;
32094;SDS011;18608;53.688;10.748;2022-10-28T02:28:48;7.93;;;5.57;;
32094;SDS011;18608;53.688;10.748;2022-10-28T02:31:17;7.47;;;5.00;;
32094;SDS011;18608;53.688;10.748;2022-10-28T02:33:44;13.30;;;7.03;;
32094;SDS011;18608;53.688;10.748;2022-10-28T02:36:14;10.67;;;5.60;;
32094;SDS011;18608;53.688;10.748;2022-10-28T02:38:42;9.63;;;4.90;;
32094;SDS011;18608;53.688;10.748;2022-10-28T02:41:21;7.27;;;5.50;;
32094;SDS011;18608;53.688;10.748;2022-10-28T02:43:54;11.37;;;5.83;;
32094;SDS011;18608;53.688;10.748;2022-10-28T02:46:24;9.80;;;6.43;;
32094;SDS011;18608;53.688;10.748;2022-10-28T02:48:57;10.10;;;5.63;;
32094;SDS011;18608;53.688;10.748;2022-10-28T02:51:36;10.30;;;4.60;;
32094;SDS011;18608;53.688;10.748;2022-10-28T02:54:17;10.20;;;4.90;;
32094;SDS011;18608;53.688;10.748;2022-10-28T02:57:03;13.33;;;5.50;;
32094;SDS011;18608;53.688;10.748;2022-10-28T02:59:38;6.40;;;4.73;;
32094;SDS011;18608;53.688;10.748;2022-10-28T03:02:05;6.00;;;4.80;;
32094;SDS011;18608;53.688;10.748;2022-10-28T03:04:31;6.73;;;4.80;;
32094;SDS011;18608;53.688;10.748;2022-10-28T03:06:57;8.47;;;5.97;;
32094;SDS011;18608;53.688;10.748;2022-10-28T03:09:23;9.87;;;5.17;;
32094;SDS011;18608;53.688;10.748;2022-10-28T03:11:49;15.63;;;6.10;;
32094;SDS011;18608;53.688;10.748;2022-10-28T03:14:15;6.17;;;5.40;;
32094;SDS011;18608;53.688;10.748;2022-10-28T03:16:41;17.23;;;5.43;;
32094;SDS011;18608;53.688;10.748;2022-10-28T03:19:07;11.80;;;5.70;;
32094;SDS011;18608;53.688;10.748;2022-10-28T03:21:33;7.80;;;6.37;;
32094;SDS011;18608;53.688;10.748;2022-10-28T03:23:59;10.77;;;5.53;;
32094;SDS011;18608;53.688;10.748;2022-10-28T03:26:25;6.87;;;5.27;;
32094;SDS011;18608;53.688;10.748;2022-10-28T03:28:51;10.17;;;5.33;;
32094;SDS011;18608;53.688;10.748;2022-10-28T03:31:17;10.40;;;5.30;;
32094;SDS011;18608;53.688;10.748;2022-10-28T03:33:43;15.57;;;6.47;;
32094;SDS011;18608;53.688;10.748;2022-10-28T03:36:09;14.23;;;5.90;;
32094;SDS011;18608;53.688;10.748;2022-10-28T03:38:35;11.23;;;5.30;;
32094;SDS011;18608;53.688;10.748;2022-10-28T03:41:01;9.97;;;5.67;;
32094;SDS011;18608;53.688;10.748;2022-10-28T03:43:27;11.23;;;6.00;;
32094;SDS011;18608;53.688;10.748;2022-10-28T03:45:53;10.57;;;5.90;;
32094;SDS011;18608;53.688;10.748;2022-10-28T03:48:18;10.40;;;6.10;;
32094;SDS011;18608;53.688;10.748;2022-10-28T03:50:45;8.77;;;6.20;;
32094;SDS011;18608;53.688;10.748;2022-10-28T03:53:10;32.33;;;7.77;;
32094;SDS011;18608;53.688;10.748;2022-10-28T03:55:36;10.83;;;6.27;;
32094;SDS011;18608;53.688;10.748;2022-10-28T03:58:02;9.37;;;7.40;;
32094;SDS011;18608;53.688;10.748;2022-10-28T04:00:28;8.20;;;5.80;;
32094;SDS011;18608;53.688;10.748;2022-10-28T04:02:54;8.77;;;6.10;;
32094;SDS011;18608;53.688;10.748;2022-10-28T04:05:20;12.03;;;7.07;;
32094;SDS011;18608;53.688;10.748;2022-10-28T04:07:46;11.13;;;6.40;;
32094;SDS011;18608;53.688;10.748;2022-10-28T04:10:12;14.43;;;6.10;;
32094;SDS011;18608;53.688;10.748;2022-10-28T04:12:38;12.10;;;6.30;;
32094;SDS011;18608;53.688;10.748;2022-10-28T04:15:04;20.27;;;7.47;;
32094;SDS011;18608;53.688;10.748;2022-10-28T04:17:32;11.33;;;6.73;;
32094;SDS011;18608;53.688;10.748;2022-10-28T04:19:58;11.13;;;6.70;;
32094;SDS011;18608;53.688;10.748;2022-10-28T04:22:24;12.33;;;7.00;;
32094;SDS011;18608;53.688;10.748;2022-10-28T04:24:50;11.57;;;6.33;;
32094;SDS011;18608;53.688;10.748;2022-10-28T04:27:18;11.53;;;8.30;;
32094;SDS011;18608;53.688;10.748;2022-10-28T04:29:44;9.20;;;6.40;;
32094;SDS011;18608;53.688;10.748;2022-10-28T04:32:10;10.00;;;7.27;;
32094;SDS011;18608;53.688;10.748;2022-10-28T04:34:36;7.50;;;6.07;;
32094;SDS011;18608;53.688;10.748;2022-10-28T04:37:01;12.70;;;7.20;;
32094;SDS011;18608;53.688;10.748;2022-10-28T04:39:27;9.33;;;7.23;;
32094;SDS011;18608;53.688;10.748;2022-10-28T04:41:53;10.13;;;7.60;;
32094;SDS011;18608;53.688;10.748;2022-10-28T04:44:19;12.60;;;7.00;;
32094;SDS011;18608;53.688;10.748;2022-10-28T04:46:45;10.23;;;6.40;;
32094;SDS011;18608;53.688;10.748;2022-10-28T04:49:11;9.70;;;6.47;;
32094;SDS011;18608;53.688;10.748;2022-10-28T04:51:37;10.03;;;7.17;;
32094;SDS011;18608;53.688;10.748;2022-10-28T04:54:03;12.37;;;7.77;;
32094;SDS011;18608;53.688;10.748;2022-10-28T04:56:29;14.47;;;7.20;;
32094;SDS011;18608;53.688;10.748;2022-10-28T04:58:57;15.40;;;8.00;;
32094;SDS011;18608;53.688;10.748;2022-10-28T05:01:23;11.27;;;8.00;;
32094;SDS011;18608;53.688;10.748;2022-10-28T05:03:48;23.03;;;8.07;;
32094;SDS011;18608;53.688;10.748;2022-10-28T05:06:14;13.73;;;7.00;;
32094;SDS011;18608;53.688;10.748;2022-10-28T05:08:40;14.03;;;7.50;;
32094;SDS011;18608;53.688;10.748;2022-10-28T05:11:06;9.23;;;7.70;;
32094;SDS011;18608;53.688;10.748;2022-10-28T05:13:32;8.87;;;7.17;;
32094;SDS011;18608;53.688;10.748;2022-10-28T05:15:58;13.73;;;7.30;;
32094;SDS011;18608;53.688;10.748;2022-10-28T05:18:24;14.20;;;6.50;;
32094;SDS011;18608;53.688;10.748;2022-10-28T05:20:50;10.50;;;7.40;;
32094;SDS011;18608;53.688;10.748;2022-10-28T05:23:19;22.73;;;9.03;;
32094;SDS011;18608;53.688;10.748;2022-10-28T05:25:49;13.13;;;6.90;;
32094;SDS011;18608;53.688;10.748;2022-10-28T05:28:15;12.80;;;7.97;;
32094;SDS011;18608;53.688;10.748;2022-10-28T05:30:42;12.30;;;8.13;;
32094;SDS011;18608;53.688;10.748;2022-10-28T05:33:09;18.13;;;7.90;;
32094;SDS011;18608;53.688;10.748;2022-10-28T05:35:38;17.90;;;8.30;;
32094;SDS011;18608;53.688;10.748;2022-10-28T05:38:04;15.57;;;8.20;;
32094;SDS011;18608;53.688;10.748;2022-10-28T05:40:30;12.20;;;7.77;;
32094;SDS011;18608;53.688;10.748;2022-10-28T05:42:59;12.67;;;8.23;;
32094;SDS011;18608;53.688;10.748;2022-10-28T05:45:25;13.83;;;7.17;;
32094;SDS011;18608;53.688;10.748;2022-10-28T05:47:51;14.70;;;7.50;;
32094;SDS011;18608;53.688;10.748;2022-10-28T05:50:17;15.30;;;7.50;;
32094;SDS011;18608;53.688;10.748;2022-10-28T05:52:51;12.70;;;8.80;;
32094;SDS011;18608;53.688;10.748;2022-10-28T05:55:19;14.63;;;7.40;;
32094;SDS011;18608;53.688;10.748;2022-10-28T05:57:49;10.80;;;7.70;;
32094;SDS011;18608;53.688;10.748;2022-10-28T06:00:16;15.20;;;7.80;;
32094;SDS011;18608;53.688;10.748;2022-10-28T06:02:44;14.53;;;7.13;;
32094;SDS011;18608;53.688;10.748;2022-10-28T06:05:10;13.70;;;7.93;;
32094;SDS011;18608;53.688;10.748;2022-10-28T06:07:37;9.73;;;6.57;;
32094;SDS011;18608;53.688;10.748;2022-10-28T06:10:04;15.30;;;7.80;;
32094;SDS011;18608;53.688;10.748;2022-10-28T06:12:31;9.10;;;7.40;;
32094;SDS011;18608;53.688;10.748;2022-10-28T06:14:57;24.93;;;8.63;;
32094;SDS011;18608;53.688;10.748;2022-10-28T06:17:23;13.27;;;6.80;;
32094;SDS011;18608;53.688;10.748;2022-10-28T06:19:49;8.23;;;6.83;;
32094;SDS011;18608;53.688;10.748;2022-10-28T06:22:15;14.70;;;9.00;;
32094;SDS011;18608;53.688;10.748;2022-10-28T06:24:41;21.83;;;9.50;;
32094;SDS011;18608;53.688;10.748;2022-10-28T06:27:07;20.17;;;7.90;;
32094;SDS011;18608;53.688;10.748;2022-10-28T06:29:33;10.67;;;7.97;;
32094;SDS011;18608;53.688;10.748;2022-10-28T06:31:59;17.30;;;8.63;;
32094;SDS011;18608;53.688;10.748;2022-10-28T06:34:25;19.40;;;9.50;;
32094;SDS011;18608;53.688;10.748;2022-10-28T06:36:51;10.37;;;7.87;;
32094;SDS011;18608;53.688;10.748;2022-10-28T06:39:17;12.90;;;8.10;;
32094;SDS011;18608;53.688;10.748;2022-10-28T06:41:43;17.07;;;9.37;;
32094;SDS011;18608;53.688;10.748;2022-10-28T06:44:09;19.43;;;9.17;;
32094;SDS011;18608;53.688;10.748;2022-10-28T06:46:35;19.77;;;8.30;;
32094;SDS011;18608;53.688;10.748;2022-10-28T06:49:01;10.23;;;7.97;;
32094;SDS011;18608;53.688;10.748;2022-10-28T06:51:28;15.03;;;9.93;;
32094;SDS011;18608;53.688;10.748;2022-10-28T06:53:54;13.87;;;8.63;;
32094;SDS011;18608;53.688;10.748;2022-10-28T06:56:20;11.27;;;7.90;;
32094;SDS011;18608;53.688;10.748;2022-10-28T06:58:50;16.73;;;9.50;;
32094;SDS011;18608;53.688;10.748;2022-10-28T07:01:16;15.33;;;8.30;;
32094;SDS011;18608;53.688;10.748;2022-10-28T07:03:42;10.53;;;7.97;;
32094;SDS011;18608;53.688;10.748;2022-10-28T07:06:08;17.00;;;8.40;;
32094;SDS011;18608;53.688;10.748;2022-10-28T07:08:34;15.20;;;10.03;;
32094;SDS011;18608;53.688;10.748;2022-10-28T07:11:01;11.13;;;7.40;;
32094;SDS011;18608;53.688;10.748;2022-10-28T07:13:26;14.80;;;8.10;;
32094;SDS011;18608;53.688;10.748;2022-10-28T07:15:53;14.73;;;8.80;;
32094;SDS011;18608;53.688;10.748;2022-10-28T07:18:21;15.40;;;9.37;;
32094;SDS011;18608;53.688;10.748;2022-10-28T07:20:47;11.37;;;7.87;;
32094;SDS011;18608;53.688;10.748;2022-10-28T07:23:13;15.00;;;8.83;;
32094;SDS011;18608;53.688;10.748;2022-10-28T07:25:39;11.77;;;8.00;;
32094;SDS011;18608;53.688;10.748;2022-10-28T07:28:05;11.50;;;7.83;;
32094;SDS011;18608;53.688;10.748;2022-10-28T07:30:31;16.40;;;9.67;;
32094;SDS011;18608;53.688;10.748;2022-10-28T07:32:57;11.53;;;7.20;;
32094;SDS011;18608;53.688;10.748;2022-10-28T07:35:25;13.47;;;8.10;;
32094;SDS011;18608;53.688;10.748;2022-10-28T07:37:51;18.83;;;8.73;;
32094;SDS011;18608;53.688;10.748;2022-10-28T07:40:19;15.17;;;8.20;;
32094;SDS011;18608;53.688;10.748;2022-10-28T07:42:45;19.70;;;8.60;;
32094;SDS011;18608;53.688;10.748;2022-10-28T07:45:11;10.30;;;7.93;;
32094;SDS011;18608;53.688;10.748;2022-10-28T07:47:38;17.63;;;8.20;;
32094;SDS011;18608;53.688;10.748;2022-10-28T07:50:04;11.50;;;7.37;;
32094;SDS011;18608;53.688;10.748;2022-10-28T07:52:31;15.80;;;8.13;;
32094;SDS011;18608;53.688;10.748;2022-10-28T07:54:57;23.70;;;7.73;;
32094;SDS011;18608;53.688;10.748;2022-10-28T07:57:24;17.80;;;7.87;;
32094;SDS011;18608;53.688;10.748;2022-10-28T07:59:50;13.57;;;8.17;;
32094;SDS011;18608;53.688;10.748;2022-10-28T08:02:17;10.47;;;7.17;;
32094;SDS011;18608;53.688;10.748;2022-10-28T08:04:44;11.97;;;6.87;;
32094;SDS011;18608;53.688;10.748;2022-10-28T08:07:10;9.13;;;7.37;;
32094;SDS011;18608;53.688;10.748;2022-10-28T08:09:36;13.63;;;7.27;;
32094;SDS011;18608;53.688;10.748;2022-10-28T08:12:02;11.57;;;6.30;;
32094;SDS011;18608;53.688;10.748;2022-10-28T08:14:29;10.90;;;6.20;;
32094;SDS011;18608;53.688;10.748;2022-10-28T08:16:55;8.23;;;5.50;;
32094;SDS011;18608;53.688;10.748;2022-10-28T08:19:20;6.43;;;5.53;;
32094;SDS011;18608;53.688;10.748;2022-10-28T08:21:46;12.67;;;5.63;;
32094;SDS011;18608;53.688;10.748;2022-10-28T08:24:12;11.00;;;5.40;;
32094;SDS011;18608;53.688;10.748;2022-10-28T08:26:38;15.57;;;5.77;;
32094;SDS011;18608;53.688;10.748;2022-10-28T08:29:04;7.27;;;5.07;;
32094;SDS011;18608;53.688;10.748;2022-10-28T08:31:32;18.00;;;6.50;;
32094;SDS011;18608;53.688;10.748;2022-10-28T08:33:58;11.70;;;5.63;;
32094;SDS011;18608;53.688;10.748;2022-10-28T08:36:23;16.03;;;5.50;;
32094;SDS011;18608;53.688;10.748;2022-10-28T08:38:49;10.80;;;5.03;;
32094;SDS011;18608;53.688;10.748;2022-10-28T08:49:32;7.20;;;4.60;;
32094;SDS011;18608;53.688;10.748;2022-10-28T08:52:34;9.10;;;5.67;;
32094;SDS011;18608;53.688;10.748;2022-10-28T08:55:01;7.20;;;4.90;;
32094;SDS011;18608;53.688;10.748;2022-10-28T08:57:38;17.50;;;5.93;;
32094;SDS011;18608;53.688;10.748;2022-10-28T09:00:08;14.43;;;5.10;;
32094;SDS011;18608;53.688;10.748;2022-10-28T09:05:23;8.20;;;4.70;;
32094;SDS011;18608;53.688;10.748;2022-10-28T09:07:50;12.80;;;5.03;;
32094;SDS011;18608;53.688;10.748;2022-10-28T09:10:17;16.67;;;4.70;;
32094;SDS011;18608;53.688;10.748;2022-10-28T09:13:07;5.37;;;4.87;;
32094;SDS011;18608;53.688;10.748;2022-10-28T09:15:42;13.50;;;4.77;;
32094;SDS011;18608;53.688;10.748;2022-10-28T09:18:44;7.23;;;4.23;;
32094;SDS011;18608;53.688;10.748;2022-10-28T09:23:58;7.37;;;3.80;;
32094;SDS011;18608;53.688;10.748;2022-10-28T09:26:38;14.10;;;4.50;;
32094;SDS011;18608;53.688;10.748;2022-10-28T09:29:16;6.70;;;4.60;;
32094;SDS011;18608;53.688;10.748;2022-10-28T09:31:46;7.33;;;4.33;;
32094;SDS011;18608;53.688;10.748;2022-10-28T09:34:32;13.03;;;4.77;;
32094;SDS011;18608;53.688;10.748;2022-10-28T09:37:11;9.03;;;4.20;;
32094;SDS011;18608;53.688;10.748;2022-10-28T09:39:48;15.43;;;4.60;;
32094;SDS011;18608;53.688;10.748;2022-10-28T09:42:19;11.80;;;4.57;;
32094;SDS011;18608;53.688;10.748;2022-10-28T09:45:03;8.23;;;4.03;;
32094;SDS011;18608;53.688;10.748;2022-10-28T09:47:35;6.57;;;4.53;;
32094;SDS011;18608;53.688;10.748;2022-10-28T09:50:10;6.70;;;4.03;;
32094;SDS011;18608;53.688;10.748;2022-10-28T09:55:23;9.70;;;3.83;;
32094;SDS011;18608;53.688;10.748;2022-10-28T09:57:48;9.67;;;4.30;;
32094;SDS011;18608;53.688;10.748;2022-10-28T10:00:15;8.10;;;3.80;;
32094;SDS011;18608;53.688;10.748;2022-10-28T10:02:41;14.13;;;4.30;;
32094;SDS011;18608;53.688;10.748;2022-10-28T10:05:11;11.17;;;3.70;;
32094;SDS011;18608;53.688;10.748;2022-10-28T10:07:40;10.13;;;4.80;;
32094;SDS011;18608;53.688;10.748;2022-10-28T10:10:21;9.70;;;4.63;;
32094;SDS011;18608;53.688;10.748;2022-10-28T10:12:50;12.00;;;4.53;;
32094;SDS011;18608;53.688;10.748;2022-10-28T10:15:27;7.57;;;3.87;;
32094;SDS011;18608;53.688;10.748;2022-10-28T10:17:59;7.70;;;4.00;;
32094;SDS011;18608;53.688;10.748;2022-10-28T10:20:28;10.17;;;4.90;;
32094;SDS011;18608;53.688;10.748;2022-10-28T10:26:13;7.83;;;4.13;;
32094;SDS011;18608;53.688;10.748;2022-10-28T10:28:42;14.43;;;3.97;;
32094;SDS011;18608;53.688;10.748;2022-10-28T10:31:19;8.23;;;3.40;;
32094;SDS011;18608;53.688;10.748;2022-10-28T10:33:50;8.73;;;3.80;;
32094;SDS011;18608;53.688;10.748;2022-10-28T10:36:19;11.90;;;4.80;;
32094;SDS011;18608;53.688;10.748;2022-10-28T10:38:54;9.83;;;4.83;;
32094;SDS011;18608;53.688;10.748;2022-10-28T10:44:22;16.73;;;5.57;;
32094;SDS011;18608;53.688;10.748;2022-10-28T10:49:26;10.10;;;4.03;;
32094;SDS011;18608;53.688;10.748;2022-10-28T10:51:53;16.50;;;4.73;;
32094;SDS011;18608;53.688;10.748;2022-10-28T10:54:22;6.40;;;3.40;;
32094;SDS011;18608;53.688;10.748;2022-10-28T10:56:48;11.90;;;4.43;;
32094;SDS011;18608;53.688;10.748;2022-10-28T10:59:25;24.43;;;5.07;;
32094;SDS011;18608;53.688;10.748;2022-10-28T11:01:56;14.20;;;4.60;;
32094;SDS011;18608;53.688;10.748;2022-10-28T11:04:23;9.57;;;3.20;;
32094;SDS011;18608;53.688;10.748;2022-10-28T11:06:52;25.03;;;4.47;;
32094;SDS011;18608;53.688;10.748;2022-10-28T11:09:22;6.53;;;4.13;;
32094;SDS011;18608;53.688;10.748;2022-10-28T11:11:58;14.60;;;3.90;;
32094;SDS011;18608;53.688;10.748;2022-10-28T11:14:25;9.83;;;4.37;;
32094;SDS011;18608;53.688;10.748;2022-10-28T11:16:54;14.00;;;4.50;;
32094;SDS011;18608;53.688;10.748;2022-10-28T11:19:34;18.10;;;3.80;;
32094;SDS011;18608;53.688;10.748;2022-10-28T11:24:45;15.17;;;4.67;;
32094;SDS011;18608;53.688;10.748;2022-10-28T11:30:00;10.47;;;4.33;;
32094;SDS011;18608;53.688;10.748;2022-10-28T11:32:48;6.97;;;3.73;;
32094;SDS011;18608;53.688;10.748;2022-10-28T11:43:56;7.93;;;4.60;;
32094;SDS011;18608;53.688;10.748;2022-10-28T11:46:37;6.83;;;3.60;;
32094;SDS011;18608;53.688;10.748;2022-10-28T11:49:30;10.80;;;4.50;;
32094;SDS011;18608;53.688;10.748;2022-10-28T11:52:37;18.13;;;3.83;;
32094;SDS011;18608;53.688;10.748;2022-10-28T12:00:45;9.10;;;4.00;;
32094;SDS011;18608;53.688;10.748;2022-10-28T12:14:21;11.73;;;4.10;;
32094;SDS011;18608;53.688;10.748;2022-10-28T12:16:59;14.73;;;4.53;;
32094;SDS011;18608;53.688;10.748;2022-10-28T12:19:46;6.57;;;3.70;;
32094;SDS011;18608;53.688;10.748;2022-10-28T12:25:06;16.60;;;4.40;;
32094;SDS011;18608;53.688;10.748;2022-10-28T12:27:39;10.97;;;5.27;;
32094;SDS011;18608;53.688;10.748;2022-10-28T12:30:14;27.70;;;4.70;;
32094;SDS011;18608;53.688;10.748;2022-10-28T12:32:49;7.60;;;3.90;;
32094;SDS011;18608;53.688;10.748;2022-10-28T12:38:01;8.73;;;4.33;;
32094;SDS011;18608;53.688;10.748;2022-10-28T12:43:31;8.93;;;4.20;;
32094;SDS011;18608;53.688;10.748;2022-10-28T12:46:01;17.33;;;4.07;;
32094;SDS011;18608;53.688;10.748;2022-10-28T12:48:32;8.80;;;3.87;;
32094;SDS011;18608;53.688;10.748;2022-10-28T12:51:16;10.97;;;3.73;;
32094;SDS011;18608;53.688;10.748;2022-10-28T12:54:07;13.03;;;4.90;;
32094;SDS011;18608;53.688;10.748;2022-10-28T12:59:57;14.87;;;3.90;;
32094;SDS011;18608;53.688;10.748;2022-10-28T13:02:37;10.23;;;3.93;;
32094;SDS011;18608;53.688;10.748;2022-10-28T13:05:07;14.23;;;4.07;;
32094;SDS011;18608;53.688;10.748;2022-10-28T13:24:10;19.53;;;4.30;;
32094;SDS011;18608;53.688;10.748;2022-10-28T13:26:44;14.40;;;4.77;;
32094;SDS011;18608;53.688;10.748;2022-10-28T13:29:23;15.07;;;5.40;;
32094;SDS011;18608;53.688;10.748;2022-10-28T13:31:55;15.53;;;4.40;;
32094;SDS011;18608;53.688;10.748;2022-10-28T13:34:25;10.50;;;4.90;;
32094;SDS011;18608;53.688;10.748;2022-10-28T13:36:56;10.40;;;3.93;;
32094;SDS011;18608;53.688;10.748;2022-10-28T13:42:29;18.43;;;5.90;;
32094;SDS011;18608;53.688;10.748;2022-10-28T13:44:51;9.17;;;5.50;;
32094;SDS011;18608;53.688;10.748;2022-10-28T13:55:41;20.53;;;6.63;;
32094;SDS011;18608;53.688;10.748;2022-10-28T13:58:18;16.77;;;4.83;;
32094;SDS011;18608;53.688;10.748;2022-10-28T14:00:46;14.57;;;4.00;;
32094;SDS011;18608;53.688;10.748;2022-10-28T14:03:17;18.67;;;4.60;;
32094;SDS011;18608;53.688;10.748;2022-10-28T14:10:53;11.63;;;4.20;;
32094;SDS011;18608;53.688;10.748;2022-10-28T14:13:26;13.43;;;4.63;;
32094;SDS011;18608;53.688;10.748;2022-10-28T14:16:15;14.23;;;4.27;;
32094;SDS011;18608;53.688;10.748;2022-10-28T14:19:02;14.77;;;5.67;;
32094;SDS011;18608;53.688;10.748;2022-10-28T14:35:02;10.20;;;3.67;;
32094;SDS011;18608;53.688;10.748;2022-10-28T14:51:14;16.63;;;4.90;;
32094;SDS011;18608;53.688;10.748;2022-10-28T14:53:43;19.73;;;4.80;;
32094;SDS011;18608;53.688;10.748;2022-10-28T14:59:21;16.40;;;5.07;;
32094;SDS011;18608;53.688;10.748;2022-10-28T15:04:22;10.07;;;3.90;;
32094;SDS011;18608;53.688;10.748;2022-10-28T15:06:49;15.13;;;5.37;;
32094;SDS011;18608;53.688;10.748;2022-10-28T15:11:42;10.33;;;5.10;;
32094;SDS011;18608;53.688;10.748;2022-10-28T15:14:13;9.23;;;4.70;;
32094;SDS011;18608;53.688;10.748;2022-10-28T15:16:47;10.67;;;5.07;;
32094;SDS011;18608;53.688;10.748;2022-10-28T15:19:15;11.27;;;4.07;;
32094;SDS011;18608;53.688;10.748;2022-10-28T15:21:43;9.80;;;4.47;;
32094;SDS011;18608;53.688;10.748;2022-10-28T15:24:11;11.60;;;3.83;;
32094;SDS011;18608;53.688;10.748;2022-10-28T15:26:37;13.30;;;4.87;;
32094;SDS011;18608;53.688;10.748;2022-10-28T15:29:03;14.50;;;4.40;;
32094;SDS011;18608;53.688;10.748;2022-10-28T15:31:29;17.77;;;4.67;;
32094;SDS011;18608;53.688;10.748;2022-10-28T15:33:55;16.90;;;4.47;;
32094;SDS011;18608;53.688;10.748;2022-10-28T15:36:22;12.63;;;4.17;;
32094;SDS011;18608;53.688;10.748;2022-10-28T15:39:06;15.00;;;4.70;;
32094;SDS011;18608;53.688;10.748;2022-10-28T15:41:41;9.93;;;5.07;;
32094;SDS011;18608;53.688;10.748;2022-10-28T15:46:57;16.13;;;4.77;;
32094;SDS011;18608;53.688;10.748;2022-10-28T15:49:35;14.10;;;4.77;;
32094;SDS011;18608;53.688;10.748;2022-10-28T15:54:53;17.37;;;5.60;;
32094;SDS011;18608;53.688;10.748;2022-10-28T15:57:21;20.63;;;5.93;;
32094;SDS011;18608;53.688;10.748;2022-10-28T16:02:57;16.70;;;5.27;;
32094;SDS011;18608;53.688;10.748;2022-10-28T16:10:43;15.70;;;5.30;;
32094;SDS011;18608;53.688;10.748;2022-10-28T16:15:47;10.37;;;5.00;;
32094;SDS011;18608;53.688;10.748;2022-10-28T16:18:21;12.03;;;5.77;;
32094;SDS011;18608;53.688;10.748;2022-10-28T16:20:48;12.33;;;5.67;;
32094;SDS011;18608;53.688;10.748;2022-10-28T16:23:18;14.30;;;5.50;;
32094;SDS011;18608;53.688;10.748;2022-10-28T16:25:46;13.47;;;5.80;;
32094;SDS011;18608;53.688;10.748;2022-10-28T16:28:22;23.90;;;7.40;;
32094;SDS011;18608;53.688;10.748;2022-10-28T16:30:50;11.60;;;6.93;;
32094;SDS011;18608;53.688;10.748;2022-10-28T16:33:25;10.50;;;7.00;;
32094;SDS011;18608;53.688;10.748;2022-10-28T16:35:55;14.73;;;6.83;;
32094;SDS011;18608;53.688;10.748;2022-10-28T16:38:21;13.00;;;7.07;;
32094;SDS011;18608;53.688;10.748;2022-10-28T16:40:47;17.20;;;7.10;;
32094;SDS011;18608;53.688;10.748;2022-10-28T16:43:18;27.63;;;7.13;;
32094;SDS011;18608;53.688;10.748;2022-10-28T16:45:46;18.87;;;7.10;;
32094;SDS011;18608;53.688;10.748;2022-10-28T16:48:13;16.73;;;7.40;;
32094;SDS011;18608;53.688;10.748;2022-10-28T16:50:40;14.20;;;7.83;;
32094;SDS011;18608;53.688;10.748;2022-10-28T16:53:12;16.33;;;7.87;;
32094;SDS011;18608;53.688;10.748;2022-10-28T16:55:38;12.87;;;6.50;;
32094;SDS011;18608;53.688;10.748;2022-10-28T16:58:04;10.80;;;6.33;;
32094;SDS011;18608;53.688;10.748;2022-10-28T17:00:29;9.27;;;5.60;;
32094;SDS011;18608;53.688;10.748;2022-10-28T17:02:55;22.90;;;6.80;;
32094;SDS011;18608;53.688;10.748;2022-10-28T17:05:22;14.00;;;5.90;;
32094;SDS011;18608;53.688;10.748;2022-10-28T17:07:48;18.40;;;6.63;;
32094;SDS011;18608;53.688;10.748;2022-10-28T17:10:15;14.97;;;6.07;;
32094;SDS011;18608;53.688;10.748;2022-10-28T17:12:41;15.40;;;5.70;;
32094;SDS011;18608;53.688;10.748;2022-10-28T17:15:07;8.90;;;5.13;;
32094;SDS011;18608;53.688;10.748;2022-10-28T17:17:34;22.97;;;7.00;;
32094;SDS011;18608;53.688;10.748;2022-10-28T17:19:59;18.27;;;5.80;;
32094;SDS011;18608;53.688;10.748;2022-10-28T17:22:26;15.03;;;6.33;;
32094;SDS011;18608;53.688;10.748;2022-10-28T17:24:51;15.97;;;6.77;;
32094;SDS011;18608;53.688;10.748;2022-10-28T17:27:18;16.53;;;6.10;;
32094;SDS011;18608;53.688;10.748;2022-10-28T17:29:44;13.87;;;6.07;;
32094;SDS011;18608;53.688;10.748;2022-10-28T17:32:10;17.33;;;5.80;;
32094;SDS011;18608;53.688;10.748;2022-10-28T17:34:36;13.20;;;5.97;;
32094;SDS011;18608;53.688;10.748;2022-10-28T17:37:02;15.60;;;6.97;;
32094;SDS011;18608;53.688;10.748;2022-10-28T17:39:28;12.20;;;5.80;;
32094;SDS011;18608;53.688;10.748;2022-10-28T17:41:54;13.13;;;5.90;;
32094;SDS011;18608;53.688;10.748;2022-10-28T17:44:21;14.63;;;5.70;;
32094;SDS011;18608;53.688;10.748;2022-10-28T17:46:47;18.20;;;5.60;;